sensor_id;sensor_type;location;lat;lon;timestamp;P1;durP1;ratioP1;P2;durP2;ratioP2
8359;SDS011;4217;48.762;11.428;2022-12-01T00:08:30;23.07;;;21.17;;
8359;SDS011;4217;48.762;11.428;2022-12-01T00:18:33;21.50;;;19.80;;
8359;SDS011;4217;48.762;11.428;2022-12-01T00:28:35;21.77;;;19.97;;
8359;SDS011;4217;48.762;11.428;2022-12-01T00:38:36;21.00;;;19.33;;
8359;SDS011;4217;48.762;11.428;2022-12-01T00:48:38;22.13;;;20.20;;
8359;SDS011;4217;48.762;11.428;2022-12-01T00:58:40;21.63;;;19.83;;
8359;SDS011;4217;48.762;11.428;2022-12-01T01:08:42;20.83;;;19.03;;
8359;SDS011;4217;48.762;11.428;2022-12-01T01:18:43;22.40;;;20.60;;
8359;SDS011;4217;48.762;11.428;2022-12-01T01:28:45;22.03;;;20.33;;
8359;SDS011;4217;48.762;11.428;2022-12-01T01:38:48;20.90;;;19.20;;
8359;SDS011;4217;48.762;11.428;2022-12-01T01:59:03;19.03;;;17.47;;
8359;SDS011;4217;48.762;11.428;2022-12-01T02:09:05;19.53;;;18.00;;
8359;SDS011;4217;48.762;11.428;2022-12-01T02:19:17;19.57;;;18.00;;
8359;SDS011;4217;48.762;11.428;2022-12-01T02:39:57;20.23;;;18.60;;
8359;SDS011;4217;48.762;11.428;2022-12-01T02:50:09;20.50;;;18.90;;
8359;SDS011;4217;48.762;11.428;2022-12-01T03:00:13;19.43;;;17.93;;
8359;SDS011;4217;48.762;11.428;2022-12-01T03:20:20;18.90;;;17.40;;
8359;SDS011;4217;48.762;11.428;2022-12-01T03:30:33;19.23;;;17.60;;
8359;SDS011;4217;48.762;11.428;2022-12-01T03:40:36;20.40;;;18.73;;
8359;SDS011;4217;48.762;11.428;2022-12-01T04:01:08;21.53;;;19.83;;
8359;SDS011;4217;48.762;11.428;2022-12-01T04:11:11;19.50;;;17.90;;
8359;SDS011;4217;48.762;11.428;2022-12-01T04:21:33;20.10;;;18.50;;
8359;SDS011;4217;48.762;11.428;2022-12-01T04:31:34;19.37;;;17.97;;
8359;SDS011;4217;48.762;11.428;2022-12-01T04:41:36;19.60;;;17.97;;
8359;SDS011;4217;48.762;11.428;2022-12-01T04:51:38;19.80;;;18.13;;
8359;SDS011;4217;48.762;11.428;2022-12-01T05:01:39;20.43;;;18.73;;
8359;SDS011;4217;48.762;11.428;2022-12-01T05:11:41;22.40;;;20.50;;
8359;SDS011;4217;48.762;11.428;2022-12-01T05:21:43;21.93;;;20.17;;
8359;SDS011;4217;48.762;11.428;2022-12-01T05:31:46;21.97;;;20.27;;
8359;SDS011;4217;48.762;11.428;2022-12-01T05:41:47;23.37;;;21.43;;
8359;SDS011;4217;48.762;11.428;2022-12-01T05:51:49;21.80;;;20.00;;
8359;SDS011;4217;48.762;11.428;2022-12-01T06:01:50;22.83;;;20.90;;
8359;SDS011;4217;48.762;11.428;2022-12-01T06:11:52;24.00;;;22.00;;
8359;SDS011;4217;48.762;11.428;2022-12-01T06:21:53;30.47;;;27.77;;
8359;SDS011;4217;48.762;11.428;2022-12-01T06:31:55;23.87;;;21.97;;
8359;SDS011;4217;48.762;11.428;2022-12-01T06:41:57;22.70;;;20.87;;
8359;SDS011;4217;48.762;11.428;2022-12-01T06:51:58;23.70;;;21.60;;
8359;SDS011;4217;48.762;11.428;2022-12-01T07:02:01;23.33;;;21.33;;
8359;SDS011;4217;48.762;11.428;2022-12-01T07:12:03;23.53;;;21.47;;
8359;SDS011;4217;48.762;11.428;2022-12-01T07:22:05;21.30;;;19.40;;
8359;SDS011;4217;48.762;11.428;2022-12-01T07:32:06;23.27;;;21.37;;
8359;SDS011;4217;48.762;11.428;2022-12-01T07:42:08;22.53;;;20.73;;
8359;SDS011;4217;48.762;11.428;2022-12-01T07:52:09;21.83;;;19.87;;
8359;SDS011;4217;48.762;11.428;2022-12-01T08:02:11;21.20;;;19.17;;
8359;SDS011;4217;48.762;11.428;2022-12-01T08:12:12;20.30;;;18.70;;
8359;SDS011;4217;48.762;11.428;2022-12-01T08:22:14;18.73;;;17.23;;
8359;SDS011;4217;48.762;11.428;2022-12-01T08:32:16;19.40;;;17.80;;
8359;SDS011;4217;48.762;11.428;2022-12-01T08:42:18;20.70;;;18.83;;
8359;SDS011;4217;48.762;11.428;2022-12-01T08:52:19;17.70;;;16.30;;
8359;SDS011;4217;48.762;11.428;2022-12-01T09:02:21;16.90;;;15.60;;
8359;SDS011;4217;48.762;11.428;2022-12-01T09:12:24;16.10;;;14.90;;
8359;SDS011;4217;48.762;11.428;2022-12-01T09:22:25;16.13;;;15.03;;
8359;SDS011;4217;48.762;11.428;2022-12-01T09:32:26;17.47;;;16.27;;
8359;SDS011;4217;48.762;11.428;2022-12-01T09:42:28;17.73;;;16.43;;
8359;SDS011;4217;48.762;11.428;2022-12-01T09:52:40;17.67;;;16.40;;
8359;SDS011;4217;48.762;11.428;2022-12-01T10:02:53;18.47;;;17.07;;
8359;SDS011;4217;48.762;11.428;2022-12-01T10:13:18;16.37;;;15.37;;
8359;SDS011;4217;48.762;11.428;2022-12-01T10:34:00;17.73;;;16.43;;
8359;SDS011;4217;48.762;11.428;2022-12-01T10:44:31;17.33;;;16.00;;
8359;SDS011;4217;48.762;11.428;2022-12-01T10:54:35;18.17;;;16.77;;
8359;SDS011;4217;48.762;11.428;2022-12-01T11:04:58;16.67;;;15.47;;
8359;SDS011;4217;48.762;11.428;2022-12-01T11:15:00;17.33;;;16.03;;
8359;SDS011;4217;48.762;11.428;2022-12-01T11:25:04;17.33;;;15.93;;
8359;SDS011;4217;48.762;11.428;2022-12-01T11:55:22;16.03;;;14.93;;
8359;SDS011;4217;48.762;11.428;2022-12-01T12:05:36;15.50;;;14.37;;
8359;SDS011;4217;48.762;11.428;2022-12-01T12:15:58;15.73;;;14.63;;
8359;SDS011;4217;48.762;11.428;2022-12-01T12:47:05;16.00;;;14.90;;
8359;SDS011;4217;48.762;11.428;2022-12-01T12:57:18;17.07;;;15.70;;
8359;SDS011;4217;48.762;11.428;2022-12-01T13:07:31;16.50;;;15.20;;
8359;SDS011;4217;48.762;11.428;2022-12-01T13:17:39;16.27;;;15.07;;
8359;SDS011;4217;48.762;11.428;2022-12-01T13:27:43;17.10;;;15.70;;
8359;SDS011;4217;48.762;11.428;2022-12-01T13:37:47;16.97;;;15.67;;
8359;SDS011;4217;48.762;11.428;2022-12-01T13:47:50;18.37;;;16.90;;
8359;SDS011;4217;48.762;11.428;2022-12-01T14:07:59;18.70;;;17.20;;
8359;SDS011;4217;48.762;11.428;2022-12-01T14:18:03;18.93;;;17.43;;
8359;SDS011;4217;48.762;11.428;2022-12-01T14:39:08;17.33;;;16.03;;
8359;SDS011;4217;48.762;11.428;2022-12-01T14:49:19;22.37;;;20.47;;
8359;SDS011;4217;48.762;11.428;2022-12-01T14:59:24;18.93;;;17.33;;
8359;SDS011;4217;48.762;11.428;2022-12-01T15:09:26;19.13;;;17.63;;
8359;SDS011;4217;48.762;11.428;2022-12-01T15:19:37;18.57;;;17.07;;
8359;SDS011;4217;48.762;11.428;2022-12-01T15:29:41;19.33;;;17.83;;
8359;SDS011;4217;48.762;11.428;2022-12-01T15:40:07;18.93;;;17.43;;
8359;SDS011;4217;48.762;11.428;2022-12-01T15:50:30;20.00;;;18.30;;
8359;SDS011;4217;48.762;11.428;2022-12-01T16:00:50;20.63;;;18.93;;
8359;SDS011;4217;48.762;11.428;2022-12-01T16:11:09;21.57;;;19.77;;
8359;SDS011;4217;48.762;11.428;2022-12-01T16:21:13;20.47;;;18.80;;
8359;SDS011;4217;48.762;11.428;2022-12-01T16:31:17;21.50;;;19.60;;
8359;SDS011;4217;48.762;11.428;2022-12-01T16:41:30;22.20;;;20.37;;
8359;SDS011;4217;48.762;11.428;2022-12-01T16:51:38;21.93;;;20.23;;
8359;SDS011;4217;48.762;11.428;2022-12-01T17:01:55;23.47;;;21.57;;
8359;SDS011;4217;48.762;11.428;2022-12-01T17:11:57;22.90;;;21.10;;
8359;SDS011;4217;48.762;11.428;2022-12-01T17:21:59;22.13;;;20.30;;
8359;SDS011;4217;48.762;11.428;2022-12-01T17:32:00;22.97;;;21.00;;
8359;SDS011;4217;48.762;11.428;2022-12-01T17:42:02;21.07;;;19.27;;
8359;SDS011;4217;48.762;11.428;2022-12-01T17:52:04;22.03;;;20.23;;
8359;SDS011;4217;48.762;11.428;2022-12-01T18:02:08;21.93;;;20.03;;
8359;SDS011;4217;48.762;11.428;2022-12-01T18:12:12;22.03;;;20.13;;
8359;SDS011;4217;48.762;11.428;2022-12-01T18:22:14;19.50;;;17.97;;
8359;SDS011;4217;48.762;11.428;2022-12-01T18:32:15;22.33;;;20.53;;
8359;SDS011;4217;48.762;11.428;2022-12-01T18:42:17;22.10;;;20.07;;
8359;SDS011;4217;48.762;11.428;2022-12-01T18:52:18;19.43;;;17.83;;
8359;SDS011;4217;48.762;11.428;2022-12-01T19:02:20;21.23;;;19.50;;
8359;SDS011;4217;48.762;11.428;2022-12-01T19:12:21;22.67;;;20.97;;
8359;SDS011;4217;48.762;11.428;2022-12-01T19:22:23;21.83;;;20.03;;
8359;SDS011;4217;48.762;11.428;2022-12-01T19:32:24;23.37;;;21.47;;
8359;SDS011;4217;48.762;11.428;2022-12-01T19:42:26;23.37;;;21.60;;
8359;SDS011;4217;48.762;11.428;2022-12-01T19:52:27;23.17;;;21.17;;
8359;SDS011;4217;48.762;11.428;2022-12-01T20:02:29;24.50;;;22.60;;
8359;SDS011;4217;48.762;11.428;2022-12-01T20:12:32;23.57;;;21.67;;
8359;SDS011;4217;48.762;11.428;2022-12-01T20:22:34;25.50;;;23.53;;
8359;SDS011;4217;48.762;11.428;2022-12-01T20:32:36;24.93;;;23.03;;
8359;SDS011;4217;48.762;11.428;2022-12-01T20:42:38;26.20;;;24.10;;
8359;SDS011;4217;48.762;11.428;2022-12-01T20:52:39;26.00;;;23.90;;
8359;SDS011;4217;48.762;11.428;2022-12-01T21:02:42;26.13;;;24.03;;
8359;SDS011;4217;48.762;11.428;2022-12-01T21:12:44;26.40;;;24.27;;
8359;SDS011;4217;48.762;11.428;2022-12-01T21:23:11;26.70;;;24.70;;
8359;SDS011;4217;48.762;11.428;2022-12-01T21:43:30;28.03;;;25.73;;
8359;SDS011;4217;48.762;11.428;2022-12-01T21:53:38;29.00;;;26.30;;
8359;SDS011;4217;48.762;11.428;2022-12-01T22:03:42;28.23;;;26.03;;
8359;SDS011;4217;48.762;11.428;2022-12-01T22:24:13;28.20;;;25.90;;
8359;SDS011;4217;48.762;11.428;2022-12-01T22:34:15;30.07;;;27.33;;
8359;SDS011;4217;48.762;11.428;2022-12-01T22:44:20;30.23;;;27.77;;
8359;SDS011;4217;48.762;11.428;2022-12-01T22:54:24;31.97;;;29.30;;
8359;SDS011;4217;48.762;11.428;2022-12-01T23:04:31;31.13;;;28.60;;
8359;SDS011;4217;48.762;11.428;2022-12-01T23:14:45;31.53;;;28.93;;
8359;SDS011;4217;48.762;11.428;2022-12-01T23:24:49;30.77;;;28.13;;
8359;SDS011;4217;48.762;11.428;2022-12-01T23:34:51;33.40;;;30.67;;
8359;SDS011;4217;48.762;11.428;2022-12-01T23:45:00;32.03;;;29.40;;
8359;SDS011;4217;48.762;11.428;2022-12-01T23:55:06;30.03;;;27.60;;
